Time;durP1;ratioP1;P1;durP2;ratioP2;P2;SDS_P1;SDS_P2;PMS_P1;PMS_P2;Temp;Humidity;BMP_temperature;BMP_pressure;BME280_temperature;BME280_humidity;BME280_pressure;Samples;Min_cycle;Max_cycle;Signal;HPM_P1;HPM_P2
2021/12/28 11:44:10;;;;;;;16.25;3.20;;;;;;;8.17;100.00;98753.53;5069842;28;20399;-53
2021/12/28 11:46:36;;;;;;;19.73;2.55;;;;;;;8.06;100.00;98753.19;5049709;28;20060;-52
2021/12/28 11:49:04;;;;;;;21.90;3.35;;;;;;;8.07;100.00;98760.19;5049572;28;20052;-50
2021/12/28 11:51:29;;;;;;;21.25;2.30;;;;;;;8.10;100.00;98753.56;5049714;28;20020;-50
2021/12/28 11:53:55;;;;;;;37.80;4.65;;;;;;;8.13;100.00;98761.97;5049454;28;20040;-49
2021/12/28 11:56:27;;;;;;;36.75;3.20;;;;;;;8.17;100.00;98764.25;5048247;28;20040;-48
2021/12/28 11:59:24;;;;;;;33.22;3.78;;;;;;;8.19;100.00;98756.78;5050642;28;20039;-47
2021/12/28 12:01:52;;;;;;;41.55;4.43;;;;;;;8.22;100.00;98757.19;5048917;28;20516;-47
2021/12/28 12:07:00;;;;;;;34.17;3.17;;;;;;;8.27;100.00;98751.19;5050202;28;19909;-43
2021/12/28 12:09:25;;;;;;;;;;;;;;;8.27;100.00;98767.28;5049718;28;20073;-44
2021/12/28 12:12:15;;;;;;;36.63;3.40;;;;;;;8.32;100.00;98759.38;5049019;28;19905;-43
2021/12/28 12:14:50;;;;;;;41.28;3.95;;;;;;;8.37;100.00;98770.25;5048529;28;20060;-43
2021/12/28 12:17:30;;;;;;;52.40;4.93;;;;;;;8.41;100.00;98755.41;5047746;28;20170;-43
2021/12/28 12:19:58;;;;;;;61.90;4.97;;;;;;;8.51;99.68;98771.84;5049811;28;20099;-43
2021/12/28 12:22:43;;;;;;;52.30;5.57;;;;;;;8.67;98.87;98757.06;5060672;28;20095;-44
2021/12/28 12:25:14;;;;;;;47.30;5.22;;;;;;;8.85;98.98;98761.63;5028788;28;20061;-44
2021/12/28 12:27:45;;;;;;;59.47;7.35;;;;;;;9.09;98.32;98745.69;5050470;28;20033;-43
2021/12/28 12:30:17;;;;;;;46.90;4.63;;;;;;;9.27;96.29;98743.00;5068502;28;20103;-42
2021/12/28 12:33:07;;;;;;;55.63;5.60;;;;;;;9.40;95.66;98744.69;5055630;28;20065;-43
2021/12/28 12:35:34;;;;;;;52.60;5.18;;;;;;;9.45;95.37;98750.19;5048812;28;20121;-44
2021/12/28 12:38:03;;;;;;;58.83;5.47;;;;;;;9.57;95.27;98739.53;5048795;28;20031;-44
2021/12/28 12:41:04;;;;;;;53.15;5.90;;;;;;;9.60;92.75;98742.56;5048090;28;20022;-42
2021/12/28 12:43:36;;;;;;;60.85;5.63;;;;;;;9.59;91.94;98751.69;5035103;28;20049;-45
2021/12/28 12:46:20;;;;;;;56.58;6.32;;;;;;;9.54;91.10;98758.78;5038228;28;20029;-44
2021/12/28 12:48:45;;;;;;;63.08;6.70;;;;;;;9.54;90.69;98753.41;5049329;28;20029;-44
2021/12/28 12:51:23;;;;;;;53.88;7.18;;;;;;;9.38;89.37;98761.03;5052538;28;20370;-44
2021/12/28 12:53:54;;;;;;;58.08;6.47;;;;;;;9.23;89.21;98764.09;5045100;28;20401;-44
2021/12/28 12:56:37;;;;;;;71.03;7.47;;;;;;;9.12;90.00;98774.75;5034573;28;20029;-42
2021/12/28 12:59:29;;;;;;;59.08;7.00;;;;;;;9.00;90.33;98794.28;5034444;28;20175;-43
2021/12/28 13:02:00;;;;;;;55.90;6.07;;;;;;;8.76;88.27;98779.03;5052346;28;20075;-42
2021/12/28 13:04:26;;;;;;;33.65;4.82;;;;;;;8.54;89.96;98787.47;5053937;28;20028;-42
2021/12/28 13:07:00;;;;;;;27.05;3.50;;;;;;;8.28;91.48;98782.28;5036234;28;20037;-42
2021/12/28 13:09:25;;;;;;;22.50;4.25;;;;;;;8.07;92.44;98770.88;5034724;28;20048;-48
2021/12/28 13:11:52;;;;;;;24.88;2.55;;;;;;;7.94;92.08;98773.66;5037073;28;20465;-47
2021/12/28 13:14:17;;;;;;;29.52;3.78;;;;;;;7.88;93.14;98774.53;5033922;28;20057;-48
2021/12/28 13:17:02;;;;;;;30.00;2.95;;;;;;;7.79;93.95;98776.63;5034468;28;20057;-49
2021/12/28 13:19:28;;;;;;;33.47;3.97;;;;;;;7.75;93.44;98775.41;5036119;28;20029;-47
2021/12/28 13:21:59;;;;;;;36.67;3.95;;;;;;;7.77;93.76;98769.88;5049095;28;20044;-45
2021/12/28 13:24:26;;;;;;;53.30;4.65;;;;;;;7.81;94.33;98779.91;5052451;28;20032;-44
2021/12/28 13:26:58;;;;;;;64.88;6.20;;;;;;;7.83;94.99;98777.03;5038936;28;20026;-42
2021/12/28 13:29:25;;;;;;;47.25;5.30;;;;;;;7.87;94.19;98780.91;5035150;28;20030;-43
2021/12/28 13:31:52;;;;;;;52.88;5.70;;;;;;;7.89;93.90;98768.13;5045695;28;20021;-43
2021/12/28 13:34:17;;;;;;;57.25;6.35;;;;;;;7.90;94.57;98792.03;5034207;28;20025;-43
2021/12/28 13:36:54;;;;;;;49.92;5.78;;;;;;;7.89;95.11;98773.47;5034297;28;20033;-42
2021/12/28 13:39:19;;;;;;;50.95;4.80;;;;;;;7.85;96.74;98767.75;5013600;28;20470;-45
2021/12/28 13:41:52;;;;;;;60.65;6.13;;;;;;;7.82;97.48;98786.09;5032775;28;20077;-49
2021/12/28 13:44:17;;;;;;;51.55;5.00;;;;;;;7.77;98.02;98781.38;5037308;28;20071;-51
2021/12/28 13:46:43;;;;;;;50.20;5.25;;;;;;;7.76;98.36;98763.66;5042678;28;20054;-48
2021/12/28 13:49:12;;;;;;;68.05;6.57;;;;;;;7.76;97.30;98768.19;5033907;28;20033;-52
2021/12/28 13:51:37;;;;;;;53.05;5.85;;;;;;;7.82;98.25;98772.69;5033906;28;20037;-47
2021/12/28 13:54:05;;;;;;;43.22;4.90;;;;;;;7.83;96.94;98780.53;5034916;28;20061;-46
2021/12/28 13:56:38;;;;;;;41.67;5.40;;;;;;;7.86;95.83;98768.56;5032314;28;20026;-49
2021/12/28 13:59:05;;;;;;;37.55;4.07;;;;;;;7.88;94.68;98771.84;5037483;28;20132;-46
2021/12/28 14:01:38;;;;;;;39.67;3.63;;;;;;;7.89;95.00;98771.63;5033851;28;20417;-45
2021/12/28 14:04:16;;;;;;;40.40;4.15;;;;;;;7.92;93.94;98770.38;5033649;28;20065;-45
2021/12/28 14:06:43;;;;;;;;;;;;;;;7.94;95.22;98773.66;5034627;28;20056;-43
2021/12/28 14:09:13;;;;;;;30.67;3.30;;;;;;;7.94;94.35;98783.56;5033378;28;19917;-44
2021/12/28 14:11:42;;;;;;;35.28;3.70;;;;;;;7.91;94.66;98785.63;5032337;28;20775;-43
2021/12/28 14:14:16;;;;;;;34.78;3.22;;;;;;;7.91;94.89;98777.59;5040469;28;20121;-42
2021/12/28 14:17:14;;;;;;;33.22;3.65;;;;;;;7.86;94.34;98789.97;5049091;28;20481;-44
2021/12/28 14:19:46;;;;;;;36.17;4.63;;;;;;;7.87;94.91;98791.63;5049203;28;20048;-43
2021/12/28 14:22:16;;;;;;;35.47;4.43;;;;;;;7.83;95.33;98791.22;5034014;28;20540;-43
2021/12/28 14:24:45;;;;;;;43.58;3.20;;;;;;;7.80;95.53;98796.22;5035719;28;20426;-42
2021/12/28 14:27:15;;;;;;;33.65;3.42;;;;;;;7.77;95.13;98796.63;5033406;28;20029;-42
2021/12/28 14:29:40;;;;;;;38.13;3.70;;;;;;;7.76;95.48;98792.31;5033863;28;20040;-44
2021/12/28 14:32:11;;;;;;;30.02;3.97;;;;;;;7.77;95.45;98791.28;5033593;28;20021;-42
2021/12/28 14:34:41;;;;;;;31.23;3.15;;;;;;;7.77;94.85;98791.28;5033121;28;20055;-42
2021/12/28 14:37:14;;;;;;;39.78;3.20;;;;;;;7.78;94.58;98784.88;5033089;28;20409;-43
2021/12/28 14:39:47;;;;;;;51.65;4.53;;;;;;;7.81;95.32;98789.81;5031440;28;20032;-43
2021/12/28 14:42:14;;;;;;;50.85;4.45;;;;;;;7.80;95.73;98790.84;5031290;28;20494;-43
2021/12/28 14:44:41;;;;;;;37.17;3.60;;;;;;;7.79;95.36;98800.72;5039458;28;20033;-42
2021/12/28 14:47:27;;;;;;;37.45;5.70;;;;;;;7.82;95.33;98803.00;5037269;28;20075;-43
2021/12/28 14:49:55;;;;;;;36.05;5.93;;;;;;;7.84;95.00;98803.56;5032309;28;20401;-42
2021/12/28 14:52:30;;;;;;;36.90;4.03;;;;;;;7.86;94.79;98814.91;5051391;28;20037;-44
2021/12/28 14:55:08;;;;;;;34.97;4.38;;;;;;;7.88;94.97;98809.34;5052656;28;20435;-43
2021/12/28 14:57:38;;;;;;;;;;;;;;;7.89;94.84;98827.03;5034074;28;20075;-42
2021/12/28 15:00:06;;;;;;;42.00;3.95;;;;;;;7.89;95.92;98813.66;5034349;28;20328;-42
2021/12/28 15:02:31;;;;;;;37.85;3.13;;;;;;;7.88;95.90;98820.06;5051020;28;20031;-42
2021/12/28 15:04:59;;;;;;;31.83;3.45;;;;;;;7.85;95.96;98828.53;5033440;28;20025;-42
2021/12/28 15:07:29;;;;;;;47.72;4.30;;;;;;;7.87;96.73;98829.09;5027540;28;20445;-43
2021/12/28 15:09:59;;;;;;;38.67;3.95;;;;;;;7.82;97.22;98821.75;5028457;28;20033;-43
2021/12/28 15:12:41;;;;;;;40.92;4.50;;;;;;;7.81;97.71;98829.97;5026384;28;20056;-43
2021/12/28 15:15:09;;;;;;;38.80;3.92;;;;;;;7.79;97.88;98832.03;5030424;28;20057;-43
2021/12/28 15:17:35;;;;;;;34.78;3.90;;;;;;;7.80;98.41;98844.41;5021443;28;20037;-42
2021/12/28 15:20:00;;;;;;;43.75;4.60;;;;;;;7.81;98.98;98835.34;5012158;28;20030;-42
2021/12/28 15:22:27;;;;;;;56.72;4.93;;;;;;;7.82;99.16;98845.00;5031013;28;20467;-42
2021/12/28 15:24:52;;;;;;;51.70;5.53;;;;;;;7.80;98.92;98844.41;5040586;28;20040;-42
2021/12/28 15:27:18;;;;;;;42.30;4.22;;;;;;;7.81;99.30;98867.47;5047604;28;20131;-43
2021/12/28 15:29:44;;;;;;;45.95;4.57;;;;;;;7.79;99.70;98870.34;5026582;28;20381;-42
2021/12/28 15:32:10;;;;;;;29.17;2.88;;;;;;;7.76;99.84;98872.63;5029154;28;20396;-41
2021/12/28 15:34:36;;;;;;;24.80;3.20;;;;;;;7.74;100.00;98867.50;5028373;28;20067;-42
2021/12/28 15:37:01;;;;;;;44.05;3.40;;;;;;;7.74;100.00;98882.72;5031842;28;20501;-44
2021/12/28 15:39:29;;;;;;;33.30;4.07;;;;;;;7.73;100.00;98873.06;5027640;28;20132;-43
2021/12/28 15:41:54;;;;;;;39.40;3.85;;;;;;;7.72;100.00;98888.31;5030872;28;20103;-43
2021/12/28 15:44:19;;;;;;;32.95;4.15;;;;;;;7.68;100.00;98890.56;5027492;28;20033;-43
2021/12/28 15:46:45;;;;;;;28.73;4.57;;;;;;;7.65;100.00;98888.31;5027541;28;20512;-43
2021/12/28 15:49:12;;;;;;;38.88;4.10;;;;;;;7.68;100.00;98895.09;5028348;28;20021;-42
2021/12/28 15:51:38;;;;;;;29.85;4.63;;;;;;;7.69;100.00;98900.28;5030157;28;20355;-42
2021/12/28 15:54:05;;;;;;;39.50;4.25;;;;;;;7.70;100.00;98899.22;5035140;28;20041;-43
2021/12/28 15:56:31;;;;;;;34.65;3.63;;;;;;;7.74;100.00;98904.16;5030414;28;20505;-43
2021/12/28 15:58:56;;;;;;;35.78;3.35;;;;;;;7.76;100.00;98907.44;5027811;28;20029;-43
2021/12/28 16:01:23;;;;;;;50.95;4.68;;;;;;;7.76;100.00;98915.47;5027499;28;20029;-42
2021/12/28 16:03:50;;;;;;;46.25;5.68;;;;;;;7.78;100.00;98916.09;5025200;28;20037;-42
2021/12/28 16:06:16;;;;;;;37.55;4.53;;;;;;;7.79;100.00;98918.53;5026560;28;20029;-43
2021/12/28 16:08:45;;;;;;;29.92;3.78;;;;;;;7.79;100.00;98925.75;5030663;28;20408;-46
2021/12/28 16:11:12;;;;;;;35.38;4.38;;;;;;;7.77;100.00;98927.84;5024947;28;20044;-48
2021/12/28 16:13:39;;;;;;;35.38;4.55;;;;;;;7.77;100.00;98941.25;5026758;28;20510;-48
2021/12/28 16:16:05;;;;;;;26.90;4.37;;;;;;;7.78;100.00;98942.88;5029177;28;20072;-45
2021/12/28 16:18:30;;;;;;;40.75;7.85;;;;;;;7.76;100.00;98951.09;5027972;28;20049;-45
2021/12/28 16:20:55;;;;;;;34.47;4.47;;;;;;;7.74;100.00;98947.00;5027735;28;20116;-46
2021/12/28 16:23:21;;;;;;;31.92;5.03;;;;;;;7.76;100.00;98955.66;5027842;28;20037;-47
2021/12/28 16:25:46;;;;;;;22.25;4.18;;;;;;;7.74;100.00;98961.22;5028062;28;20017;-47
2021/12/28 16:28:11;;;;;;;24.45;4.00;;;;;;;7.77;100.00;98965.34;5027633;28;20067;-52
2021/12/28 16:30:37;;;;;;;33.38;4.97;;;;;;;7.78;100.00;98964.31;5032971;28;20026;-50
2021/12/28 16:33:03;;;;;;;19.38;4.07;;;;;;;7.76;100.00;98966.34;5032423;28;20061;-48
2021/12/28 16:35:28;;;;;;;25.27;4.25;;;;;;;7.80;100.00;98978.31;5032522;28;20044;-48
2021/12/28 16:37:54;;;;;;;24.08;4.25;;;;;;;7.81;100.00;98990.66;5036001;28;20029;-49
2021/12/28 16:40:24;;;;;;;26.27;4.03;;;;;;;7.81;100.00;98990.66;5029524;28;20033;-48
2021/12/28 16:42:50;;;;;;;24.05;4.18;;;;;;;7.86;100.00;98990.84;5029447;28;20112;-48
2021/12/28 16:45:16;;;;;;;29.63;4.18;;;;;;;7.87;100.00;98996.00;5018349;28;20029;-47
2021/12/28 16:47:42;;;;;;;27.08;4.30;;;;;;;7.86;100.00;98996.22;5028354;28;20078;-47
2021/12/28 16:50:09;;;;;;;35.10;4.55;;;;;;;7.88;100.00;98994.97;5031517;28;20021;-46
2021/12/28 16:52:34;;;;;;;31.35;4.25;;;;;;;7.91;100.00;99007.13;5031058;28;20115;-46
2021/12/28 16:55:01;;;;;;;33.78;4.88;;;;;;;7.91;100.00;99009.78;5031037;28;20072;-45
2021/12/28 16:57:26;;;;;;;20.67;4.05;;;;;;;7.91;100.00;99010.63;5030775;28;20052;-44
2021/12/28 16:59:52;;;;;;;33.55;5.60;;;;;;;7.91;100.00;99017.84;5030038;28;20481;-44
2021/12/28 17:02:17;;;;;;;37.70;5.95;;;;;;;7.96;100.00;99031.41;5030988;28;20033;-42
2021/12/28 17:04:43;;;;;;;29.23;5.93;;;;;;;7.94;100.00;99022.75;5030488;28;20029;-43
2021/12/28 17:07:08;;;;;;;41.58;6.85;;;;;;;7.97;100.00;99027.69;5029563;28;20025;-43
2021/12/28 17:09:34;;;;;;;30.23;5.82;;;;;;;7.96;100.00;99030.59;5030869;28;20022;-43
2021/12/28 17:11:59;;;;;;;39.42;5.82;;;;;;;7.97;100.00;99043.78;5031825;28;20053;-42
2021/12/28 17:14:24;;;;;;;30.77;6.75;;;;;;;7.98;100.00;99053.47;5032039;28;20105;-44
2021/12/28 17:16:50;;;;;;;41.40;5.97;;;;;;;8.01;100.00;99058.41;5031770;28;20029;-43
2021/12/28 17:19:15;;;;;;;44.67;7.88;;;;;;;8.05;100.00;99066.84;5031548;28;20338;-43
2021/12/28 17:21:40;;;;;;;42.47;7.50;;;;;;;8.04;100.00;99071.38;5031528;28;20396;-43
2021/12/28 17:24:06;;;;;;;46.08;7.60;;;;;;;8.06;100.00;99066.66;5031418;28;20039;-43
2021/12/28 17:26:31;;;;;;;44.20;8.80;;;;;;;8.07;100.00;99073.63;5031474;28;20346;-43
2021/12/28 17:28:58;;;;;;;41.83;7.32;;;;;;;8.10;100.00;99075.06;5035307;28;20033;-43
2021/12/28 17:31:24;;;;;;;46.33;8.27;;;;;;;8.17;100.00;99069.72;5030229;28;20128;-43
2021/12/28 17:33:50;;;;;;;50.67;9.60;;;;;;;8.16;100.00;99094.84;5031659;28;20894;-43
2021/12/28 17:36:15;;;;;;;43.88;8.80;;;;;;;8.16;100.00;99108.25;5031611;28;20029;-43
2021/12/28 17:38:41;;;;;;;31.25;7.43;;;;;;;8.20;100.00;99112.16;5030749;28;20037;-44
2021/12/28 17:41:07;;;;;;;38.58;6.43;;;;;;;8.21;100.00;99119.97;5032957;28;20048;-43
2021/12/28 17:43:33;;;;;;;19.17;5.25;;;;;;;8.22;100.00;99126.19;5034785;28;20052;-44
2021/12/28 17:45:59;;;;;;;34.70;5.63;;;;;;;8.25;100.00;99126.59;5029721;28;20369;-47
2021/12/28 17:48:24;;;;;;;24.88;4.57;;;;;;;8.27;100.00;99143.28;5031198;28;20050;-47
2021/12/28 17:50:50;;;;;;;22.75;4.15;;;;;;;8.31;100.00;99132.97;5031131;28;20025;-47
2021/12/28 17:53:16;;;;;;;24.85;4.35;;;;;;;8.31;100.00;99144.50;5031091;28;20037;-48
2021/12/28 17:55:41;;;;;;;22.92;4.75;;;;;;;8.35;100.00;99158.34;5031016;28;20036;-47
2021/12/28 17:58:08;;;;;;;21.92;5.03;;;;;;;8.35;100.00;99158.34;5030772;28;20033;-46
2021/12/28 18:00:36;;;;;;;28.92;5.57;;;;;;;8.34;100.00;99165.53;5037412;28;20044;-45
2021/12/28 18:03:02;;;;;;;;;;;;;;;8.31;100.00;99176.66;5035823;28;20083;-46
2021/12/28 18:05:28;;;;;;;43.53;6.03;;;;;;;8.33;100.00;99176.47;5025191;28;20364;-46
2021/12/28 18:07:53;;;;;;;25.60;6.00;;;;;;;8.31;100.00;99186.56;5018450;28;20046;-45
2021/12/28 18:10:19;;;;;;;30.42;6.10;;;;;;;8.34;100.00;99194.19;5011715;28;20385;-45
2021/12/28 18:12:45;;;;;;;42.60;5.93;;;;;;;8.29;100.00;99210.06;5028040;28;20120;-44
2021/12/28 18:15:11;;;;;;;35.15;5.30;;;;;;;8.32;100.00;99202.47;5013020;28;20030;-43
2021/12/28 18:17:37;;;;;;;31.50;4.78;;;;;;;8.33;100.00;99227.41;5029317;28;20052;-42
2021/12/28 18:20:04;;;;;;;30.45;4.82;;;;;;;8.33;100.00;99227.41;5030560;28;20065;-43
2021/12/28 18:22:30;;;;;;;33.72;5.70;;;;;;;8.33;100.00;99244.31;5031771;28;20363;-42
2021/12/28 18:24:55;;;;;;;33.22;5.07;;;;;;;8.31;100.00;99250.91;5031881;28;20035;-43
2021/12/28 18:27:20;;;;;;;33.03;3.90;;;;;;;8.33;100.00;99272.97;5031929;28;20076;-43
2021/12/28 18:29:46;;;;;;;32.78;3.00;;;;;;;8.36;100.00;99281.41;5032927;28;20021;-43
2021/12/28 18:32:12;;;;;;;29.75;3.47;;;;;;;8.33;100.00;99292.56;5033442;28;20095;-43
2021/12/28 18:34:38;;;;;;;38.28;3.67;;;;;;;8.31;100.00;99301.81;5031843;28;20033;-43
2021/12/28 18:37:04;;;;;;;31.95;3.90;;;;;;;8.31;100.00;99301.81;5033267;28;20034;-43
2021/12/28 18:39:30;;;;;;;37.95;4.57;;;;;;;8.30;100.00;99313.59;5038215;28;20065;-42
2021/12/28 18:41:57;;;;;;;35.90;5.28;;;;;;;8.32;100.00;99322.22;5047369;28;20134;-43
2021/12/28 18:44:22;;;;;;;28.38;3.38;;;;;;;8.38;100.00;99329.47;5029949;28;20119;-42
2021/12/28 18:46:48;;;;;;;30.58;3.92;;;;;;;8.41;100.00;99334.44;5030125;28;20021;-43
2021/12/28 18:49:14;;;;;;;39.00;5.18;;;;;;;8.41;100.00;99331.78;5036740;28;20029;-43
2021/12/28 18:51:42;;;;;;;30.73;3.67;;;;;;;8.46;100.00;99337.34;5037539;28;20044;-43
2021/12/28 18:54:09;;;;;;;41.10;4.57;;;;;;;8.40;100.00;99348.91;5029853;28;20040;-45
2021/12/28 18:56:35;;;;;;;26.50;4.18;;;;;;;8.40;100.00;99354.25;5040174;28;20026;-43
2021/12/28 18:59:01;;;;;;;33.33;4.82;;;;;;;8.43;100.00;99367.25;5049971;28;20079;-44
2021/12/28 19:01:26;;;;;;;35.75;4.88;;;;;;;8.41;100.00;99371.97;5049211;28;20036;-44
2021/12/28 19:03:52;;;;;;;30.50;4.45;;;;;;;8.41;100.00;99390.75;5049493;28;20341;-44
2021/12/28 19:06:17;;;;;;;26.83;4.75;;;;;;;8.38;100.00;99391.13;5049714;28;20044;-43
2021/12/28 19:08:43;;;;;;;35.47;4.63;;;;;;;8.39;100.00;99395.47;5044141;28;20025;-43
2021/12/28 19:11:09;;;;;;;35.05;5.13;;;;;;;8.39;100.00;99405.34;5028596;28;20083;-43
2021/12/28 19:13:35;;;;;;;30.10;3.63;;;;;;;8.44;100.00;99409.09;5029926;28;20038;-43
2021/12/28 19:16:03;;;;;;;26.02;3.65;;;;;;;8.41;100.00;99409.50;5029918;28;20037;-43
2021/12/28 19:18:28;;;;;;;38.17;4.93;;;;;;;8.44;100.00;99425.19;5030032;28;20033;-42
2021/12/28 19:20:55;;;;;;;26.35;6.05;;;;;;;8.43;100.00;99417.38;5031527;28;20222;-43
2021/12/28 19:23:21;;;;;;;37.53;6.53;;;;;;;8.41;100.00;99435.50;5033281;28;20052;-43
2021/12/28 19:25:46;;;;;;;40.65;5.63;;;;;;;8.39;100.00;99441.06;5034344;28;20033;-43
2021/12/28 19:28:12;;;;;;;41.92;5.80;;;;;;;8.41;100.00;99441.69;5032588;28;20033;-43
2021/12/28 19:30:43;;;;;;;37.92;5.55;;;;;;;8.36;100.00;99450.28;5037205;28;20028;-42
2021/12/28 19:33:08;;;;;;;54.13;6.22;;;;;;;8.34;100.00;99473.78;5030726;28;20029;-45
2021/12/28 19:35:34;;;;;;;38.17;6.22;;;;;;;8.35;100.00;99478.16;5032494;28;20034;-43
2021/12/28 19:37:59;;;;;;;41.67;5.32;;;;;;;8.35;100.00;99485.38;5035731;28;20037;-43
2021/12/28 19:40:30;;;;;;;45.17;6.80;;;;;;;8.36;100.00;99487.81;5029142;28;20033;-43
2021/12/28 19:42:56;;;;;;;36.25;5.35;;;;;;;8.38;100.00;99500.22;5033575;28;20060;-43
2021/12/28 19:45:22;;;;;;;53.08;7.55;;;;;;;8.35;100.00;99496.91;5042509;28;20034;-43
2021/12/28 19:47:48;;;;;;;38.78;6.30;;;;;;;8.37;100.00;99504.72;5029109;28;20508;-43
2021/12/28 19:50:15;;;;;;;33.53;6.47;;;;;;;8.38;100.00;99500.22;5044063;28;20040;-42
2021/12/28 19:52:41;;;;;;;40.58;6.63;;;;;;;8.35;100.00;99517.53;5047382;28;20036;-43
2021/12/28 19:55:07;;;;;;;43.55;5.75;;;;;;;8.35;100.00;99514.84;5049139;28;20037;-43
2021/12/28 19:57:33;;;;;;;40.45;5.72;;;;;;;8.36;100.00;99529.91;5044752;28;20044;-46
2021/12/28 19:59:59;;;;;;;41.75;6.13;;;;;;;8.33;100.00;99536.50;5039339;28;20030;-44
2021/12/28 20:02:25;;;;;;;36.45;5.45;;;;;;;8.30;100.00;99541.44;5028968;28;20207;-44
2021/12/28 20:04:51;;;;;;;29.88;4.80;;;;;;;8.32;100.00;99547.41;5030893;28;20372;-44
2021/12/28 20:07:17;;;;;;;40.75;6.45;;;;;;;8.33;100.00;99562.47;5032807;28;20095;-46
2021/12/28 20:09:42;;;;;;;42.88;5.47;;;;;;;8.32;100.00;99556.28;5033079;28;20038;-45
2021/12/28 20:12:11;;;;;;;41.28;5.18;;;;;;;8.32;100.00;99572.38;5032907;28;20079;-44
2021/12/28 20:14:36;;;;;;;53.95;5.90;;;;;;;8.34;100.00;99564.13;5033307;28;20029;-44
2021/12/28 20:17:02;;;;;;;39.33;5.13;;;;;;;8.31;100.00;99572.56;5032463;28;20029;-43
2021/12/28 20:19:27;;;;;;;56.75;6.10;;;;;;;8.32;100.00;99583.09;5038127;28;20029;-44
2021/12/28 20:21:53;;;;;;;46.38;5.43;;;;;;;8.32;100.00;99588.47;5045494;28;20033;-42
2021/12/28 20:24:18;;;;;;;47.65;5.18;;;;;;;8.34;100.00;99588.25;5038183;28;20033;-43
2021/12/28 20:26:44;;;;;;;36.35;6.05;;;;;;;8.34;100.00;99590.91;5032666;28;20176;-43
2021/12/28 20:29:11;;;;;;;59.70;6.90;;;;;;;8.38;100.00;99599.41;5032079;28;20021;-43
2021/12/28 20:31:37;;;;;;;39.13;5.63;;;;;;;8.38;100.00;99610.97;5032428;28;20029;-42
2021/12/28 20:34:02;;;;;;;40.67;5.85;;;;;;;8.37;100.00;99614.66;5031700;28;20052;-43
2021/12/28 20:36:29;;;;;;;44.65;5.32;;;;;;;8.36;100.00;99615.69;5032801;28;20148;-42
2021/12/28 20:38:55;;;;;;;37.87;5.67;;;;;;;8.38;100.00;99618.19;5032700;28;20108;-42
2021/12/28 20:41:21;;;;;;;38.88;5.75;;;;;;;8.33;100.00;99626.81;5032141;28;20035;-42
2021/12/28 20:43:46;;;;;;;41.72;5.95;;;;;;;8.33;100.00;99630.31;5031415;28;20049;-42
2021/12/28 20:46:11;;;;;;;34.78;6.00;;;;;;;8.36;100.00;99639.81;5032165;28;20116;-42
2021/12/28 20:48:37;;;;;;;46.95;9.50;;;;;;;8.34;100.00;99641.84;5031916;28;20034;-43
2021/12/28 20:51:03;;;;;;;37.10;5.95;;;;;;;8.34;100.00;99655.25;5033262;28;20037;-42
2021/12/28 20:53:30;;;;;;;58.80;6.00;;;;;;;8.33;100.00;99665.16;5040158;28;20033;-45
2021/12/28 20:55:56;;;;;;;47.13;5.85;;;;;;;8.34;100.00;99665.97;5046590;28;20025;-44
2021/12/28 20:58:22;;;;;;;54.95;6.70;;;;;;;8.31;100.00;99677.94;5051125;28;20102;-46
2021/12/28 21:00:47;;;;;;;46.60;5.82;;;;;;;8.34;100.00;99682.06;5051923;28;20070;-46
2021/12/28 21:03:14;;;;;;;56.42;7.10;;;;;;;8.31;100.00;99690.50;5045962;28;20029;-45
2021/12/28 21:05:41;;;;;;;49.90;6.90;;;;;;;8.31;100.00;99698.56;5022342;28;20401;-46
2021/12/28 21:08:07;;;;;;;46.20;5.53;;;;;;;8.29;100.00;99708.63;5039146;28;20461;-47
2021/12/28 21:10:34;;;;;;;37.25;4.78;;;;;;;8.32;100.00;99716.28;5043710;28;20036;-47
2021/12/28 21:13:00;;;;;;;42.95;5.28;;;;;;;8.29;100.00;99706.81;5042595;28;20049;-45
2021/12/28 21:15:26;;;;;;;44.88;6.32;;;;;;;8.33;100.00;99718.78;5021363;28;20113;-46
2021/12/28 21:17:51;;;;;;;39.10;4.47;;;;;;;8.34;100.00;99720.41;5024230;28;20244;-44
2021/12/28 21:20:20;;;;;;;42.28;6.20;;;;;;;8.35;100.00;99732.00;5013616;28;20087;-43
2021/12/28 21:22:46;;;;;;;45.83;5.00;;;;;;;8.36;100.00;99733.66;5031526;28;20025;-44
2021/12/28 21:25:12;;;;;;;41.33;5.20;;;;;;;8.40;100.00;99745.69;5031501;28;20080;-43
2021/12/28 21:27:42;;;;;;;35.55;4.63;;;;;;;8.45;100.00;99745.94;5031102;28;20025;-43
2021/12/28 21:30:13;;;;;;;35.70;4.18;;;;;;;8.39;100.00;99760.09;5034844;28;20021;-43
2021/12/28 21:32:39;;;;;;;44.55;4.82;;;;;;;8.36;100.00;99761.28;5021371;28;20025;-43
2021/12/28 21:35:08;;;;;;;50.40;8.43;;;;;;;8.36;100.00;99781.91;5034214;28;20155;-42
2021/12/28 21:37:39;;;;;;;47.13;6.80;;;;;;;8.38;100.00;99785.22;5032919;28;20026;-43
2021/12/28 21:40:06;;;;;;;46.83;5.25;;;;;;;8.34;100.00;99779.41;5033910;28;20037;-42
2021/12/28 21:42:31;;;;;;;48.13;6.00;;;;;;;8.40;100.00;99790.41;5032413;28;20092;-43
2021/12/28 21:44:57;;;;;;;39.90;5.22;;;;;;;8.38;100.00;99798.63;5034139;28;20025;-42
2021/12/28 21:47:24;;;;;;;41.60;5.03;;;;;;;8.39;100.00;99808.34;5034089;28;20032;-43
2021/12/28 21:49:50;;;;;;;44.93;5.60;;;;;;;8.41;100.00;99814.34;5034190;28;20090;-42
2021/12/28 21:52:16;;;;;;;27.98;4.82;;;;;;;8.45;100.00;99807.59;5033510;28;20037;-43
2021/12/28 21:54:45;;;;;;;43.35;4.95;;;;;;;8.46;100.00;99819.16;5016446;28;20033;-44
2021/12/28 21:57:14;;;;;;;40.28;5.03;;;;;;;8.47;100.00;99826.97;5033949;28;20112;-42
2021/12/28 21:59:42;;;;;;;33.72;4.85;;;;;;;8.48;100.00;99834.03;5033745;28;20033;-42
2021/12/28 22:02:09;;;;;;;47.00;5.30;;;;;;;8.46;100.00;99845.97;5033598;28;20064;-42
2021/12/28 22:04:34;;;;;;;44.63;5.07;;;;;;;8.45;100.00;99855.88;5033622;28;20139;-43
2021/12/28 22:07:00;;;;;;;31.75;4.25;;;;;;;8.50;100.00;99855.25;5033213;28;20477;-42
2021/12/28 22:09:26;;;;;;;39.78;5.57;;;;;;;8.48;100.00;99849.28;5033469;28;20044;-42
2021/12/28 22:11:52;;;;;;;39.50;5.07;;;;;;;8.46;100.00;99862.88;5033460;28;20036;-42
2021/12/28 22:14:17;;;;;;;40.65;5.50;;;;;;;8.46;100.00;99857.50;5033517;28;20033;-42
2021/12/28 22:16:43;;;;;;;37.88;5.00;;;;;;;8.42;100.00;99856.22;5033742;28;20022;-42
2021/12/28 22:19:08;;;;;;;32.67;5.45;;;;;;;8.46;100.00;99860.19;5033583;28;20477;-43
2021/12/28 22:21:35;;;;;;;36.83;5.57;;;;;;;8.47;100.00;99869.88;5033331;28;20026;-42
2021/12/28 22:24:00;;;;;;;42.38;5.30;;;;;;;8.48;100.00;99876.94;5033457;28;20055;-42
2021/12/28 22:26:26;;;;;;;29.88;5.50;;;;;;;8.47;100.00;99875.25;5032596;28;20473;-41
2021/12/28 22:28:51;;;;;;;31.80;5.68;;;;;;;8.51;100.00;99897.16;5032995;28;20025;-42
2021/12/28 22:31:18;;;;;;;43.03;5.38;;;;;;;8.48;100.00;99903.75;5033179;28;20052;-43
2021/12/28 22:33:44;;;;;;;56.70;6.33;;;;;;;8.50;100.00;99911.59;5033648;28;20095;-43
2021/12/28 22:36:10;;;;;;;39.75;5.32;;;;;;;8.49;100.00;99900.03;5032024;28;20029;-43
2021/12/28 22:38:35;;;;;;;29.30;5.57;;;;;;;8.51;100.00;99913.25;5033221;28;20081;-43
2021/12/28 22:41:02;;;;;;;44.88;6.03;;;;;;;8.54;100.00;99913.69;5032910;28;20563;-44
2021/12/28 22:43:28;;;;;;;39.83;5.82;;;;;;;8.54;100.00;99902.97;5032887;28;20046;-43
2021/12/28 22:45:53;;;;;;;36.60;6.50;;;;;;;8.52;100.00;99904.19;5033158;28;20175;-43
2021/12/28 22:48:21;;;;;;;43.58;6.65;;;;;;;8.56;100.00;99906.28;5033291;28;20037;-43
2021/12/28 22:50:47;;;;;;;;;;;;;;;8.53;100.00;99906.69;5033113;28;20477;-42
2021/12/28 22:53:13;;;;;;;49.88;8.05;;;;;;;8.52;100.00;99906.88;5032835;28;19909;-42
2021/12/28 22:55:40;;;;;;;51.50;8.43;;;;;;;8.51;100.00;99919.44;5032456;28;20032;-42
2021/12/28 22:58:06;;;;;;;51.75;7.57;;;;;;;8.51;100.00;99927.50;5032671;28;20029;-42
2021/12/28 23:00:40;;;;;;;46.10;7.22;;;;;;;8.52;100.00;99931.81;5032532;28;20025;-42
2021/12/28 23:03:06;;;;;;;52.78;7.28;;;;;;;8.52;100.00;99937.19;5032440;28;20031;-42
2021/12/28 23:05:32;;;;;;;42.03;6.57;;;;;;;8.50;100.00;99936.53;5031409;28;20025;-43
2021/12/28 23:07:59;;;;;;;37.08;6.47;;;;;;;8.53;100.00;99938.88;5032248;28;20021;-43
2021/12/28 23:10:25;;;;;;;32.08;5.82;;;;;;;8.53;100.00;99952.28;5032101;28;20489;-42
2021/12/28 23:12:50;;;;;;;50.78;7.30;;;;;;;8.54;100.00;99953.09;5032362;28;20112;-42
2021/12/28 23:15:16;;;;;;;36.55;6.35;;;;;;;8.53;100.00;99954.97;5032453;28;20048;-42
2021/12/28 23:17:42;;;;;;;52.78;9.07;;;;;;;8.53;100.00;99949.59;5030984;28;20478;-42